createdAt,value
2018-12-27T00:00:52.356Z,17.93
2018-12-27T00:03:19.619Z,17.94
2018-12-27T00:05:46.893Z,17.95
2018-12-27T00:08:14.107Z,17.92
2018-12-27T00:10:41.274Z,17.94
2018-12-27T00:13:08.466Z,17.93
2018-12-27T00:19:03.827Z,17.94
2018-12-27T00:21:31.160Z,17.96
2018-12-27T00:23:58.349Z,18.02
2018-12-27T00:26:25.515Z,18.03
2018-12-27T00:28:52.797Z,18.06
2018-12-27T00:31:20.035Z,18.21
2018-12-27T00:33:47.320Z,18.15
2018-12-27T00:36:14.586Z,18.13
2018-12-27T00:38:41.784Z,18.10
2018-12-27T00:41:08.940Z,18.07
2018-12-27T00:43:36.146Z,18.07
2018-12-27T00:46:03.383Z,18.13
2018-12-27T00:48:30.582Z,18.11
2018-12-27T00:50:57.746Z,18.10
2018-12-27T00:53:24.916Z,18.14
2018-12-27T00:55:53.105Z,18.09
2018-12-27T00:58:20.258Z,18.18
2018-12-27T01:00:47.594Z,18.27
2018-12-27T01:03:14.753Z,18.27
2018-12-27T01:05:41.921Z,18.25
2018-12-27T01:08:09.102Z,18.29
2018-12-27T01:10:36.302Z,18.33
2018-12-27T01:13:03.505Z,18.29
2018-12-27T01:15:30.676Z,18.28
2018-12-27T01:17:57.921Z,18.31
2018-12-27T01:20:25.074Z,18.31
2018-12-27T01:22:52.349Z,18.27
2018-12-27T01:25:19.596Z,18.27
2018-12-27T01:27:46.799Z,18.33
2018-12-27T01:30:13.960Z,18.33
2018-12-27T01:32:41.197Z,18.25
2018-12-27T01:35:08.363Z,18.36
2018-12-27T01:37:35.536Z,18.34
2018-12-27T01:40:02.716Z,18.28
2018-12-27T01:42:29.875Z,18.32
2018-12-27T01:44:57.087Z,18.27
2018-12-27T01:47:24.248Z,18.21
2018-12-27T01:49:51.472Z,18.18
2018-12-27T01:52:18.669Z,18.17
2018-12-27T01:54:45.876Z,18.14
2018-12-27T01:57:13.120Z,18.15
2018-12-27T01:59:40.275Z,18.13
2018-12-27T02:02:38.163Z,18.11
2018-12-27T02:05:05.317Z,18.07
2018-12-27T02:07:39.945Z,18.13
2018-12-27T02:10:07.098Z,18.12
2018-12-27T02:12:34.274Z,18.09
2018-12-27T02:15:01.479Z,18.10
2018-12-27T02:17:28.655Z,18.07
2018-12-27T02:19:55.878Z,18.10
2018-12-27T02:22:23.104Z,18.11
2018-12-27T02:24:50.249Z,18.10
2018-12-27T02:27:17.447Z,18.10
2018-12-27T02:29:44.609Z,18.05
2018-12-27T02:32:11.804Z,18.06
2018-12-27T02:34:38.995Z,18.05
2018-12-27T02:37:06.191Z,18.08
2018-12-27T02:39:33.372Z,18.08
2018-12-27T02:42:00.551Z,18.11
2018-12-27T02:44:27.704Z,18.32
2018-12-27T02:46:54.890Z,18.28
2018-12-27T02:49:22.087Z,18.34
2018-12-27T02:51:49.311Z,18.30
2018-12-27T02:54:16.633Z,18.33
2018-12-27T02:56:43.790Z,18.33
2018-12-27T02:59:13.159Z,18.31
2018-12-27T03:01:40.322Z,18.33
2018-12-27T03:04:07.507Z,18.41
2018-12-27T03:06:34.666Z,18.35
2018-12-27T03:09:02.002Z,18.37
2018-12-27T03:11:30.398Z,18.35
2018-12-27T03:13:57.658Z,18.37
2018-12-27T03:16:24.873Z,18.39
2018-12-27T03:18:52.013Z,18.35
2018-12-27T03:21:19.180Z,18.35
2018-12-27T03:23:46.422Z,18.31
2018-12-27T03:26:13.795Z,18.37
2018-12-27T03:28:40.930Z,18.25
2018-12-27T03:34:02.988Z,18.18
2018-12-27T03:36:30.338Z,18.25
2018-12-27T03:38:57.524Z,18.22
2018-12-27T03:41:24.685Z,18.19
2018-12-27T03:43:51.873Z,18.18
2018-12-27T03:46:19.057Z,18.15
2018-12-27T03:48:46.239Z,18.18
2018-12-27T03:51:13.381Z,18.18
2018-12-27T03:53:40.573Z,18.17
2018-12-27T03:56:07.732Z,18.14
2018-12-27T03:58:34.966Z,18.13
2018-12-27T04:01:02.110Z,18.12
2018-12-27T04:03:29.287Z,18.10
2018-12-27T04:05:56.423Z,18.10
2018-12-27T04:08:23.611Z,18.12
2018-12-27T04:10:50.761Z,18.11
2018-12-27T04:13:18.002Z,18.09
2018-12-27T04:15:45.156Z,18.13
2018-12-27T04:18:12.336Z,18.14
2018-12-27T04:20:39.473Z,18.14
2018-12-27T04:23:06.731Z,18.10
2018-12-27T04:25:34.295Z,18.08
2018-12-27T04:28:01.451Z,18.18
2018-12-27T04:30:29.269Z,18.31
2018-12-27T04:32:57.010Z,18.31
2018-12-27T04:35:24.163Z,18.35
2018-12-27T04:37:51.334Z,18.30
2018-12-27T04:40:18.568Z,18.28
2018-12-27T04:42:46.044Z,18.34
2018-12-27T04:45:13.203Z,18.33
2018-12-27T04:47:40.373Z,18.32
2018-12-27T04:50:07.571Z,18.36
2018-12-27T04:52:34.758Z,18.32
2018-12-27T04:55:01.907Z,18.37
2018-12-27T04:57:29.113Z,18.35
2018-12-27T04:59:57.386Z,18.35
2018-12-27T05:02:24.609Z,18.25
2018-12-27T05:04:51.752Z,18.18
2018-12-27T05:07:19.040Z,18.09
2018-12-27T05:09:46.186Z,18.15
2018-12-27T05:12:13.371Z,18.26
2018-12-27T05:14:40.524Z,18.22
2018-12-27T05:17:07.694Z,18.18
2018-12-27T05:19:34.860Z,18.21
2018-12-27T05:22:02.062Z,18.24
2018-12-27T05:27:49.337Z,18.18
2018-12-27T05:30:16.487Z,18.19
2018-12-27T05:32:43.660Z,18.21
2018-12-27T05:35:10.807Z,18.23
2018-12-27T05:37:37.999Z,18.22
2018-12-27T05:40:05.200Z,18.23
2018-12-27T05:42:32.360Z,18.29
2018-12-27T05:44:59.537Z,18.30
2018-12-27T05:47:26.712Z,18.21
2018-12-27T05:49:53.909Z,18.28
2018-12-27T05:52:21.093Z,18.37
2018-12-27T05:54:48.386Z,18.25
2018-12-27T05:57:15.617Z,18.24
2018-12-27T05:59:42.805Z,18.24
2018-12-27T06:02:09.940Z,18.34
2018-12-27T06:04:37.083Z,18.25
2018-12-27T06:07:04.274Z,18.23
2018-12-27T06:09:31.417Z,18.24
2018-12-27T06:11:58.587Z,18.23
2018-12-27T06:14:25.716Z,18.28
2018-12-27T06:16:52.892Z,18.29
2018-12-27T06:19:20.062Z,18.24
2018-12-27T06:21:47.234Z,18.17
2018-12-27T06:24:14.398Z,18.15
2018-12-27T06:26:41.574Z,18.14
2018-12-27T06:29:08.747Z,18.16
2018-12-27T06:31:35.923Z,18.16
2018-12-27T06:34:03.138Z,18.16
2018-12-27T06:36:30.297Z,18.16
2018-12-27T06:38:57.470Z,18.15
2018-12-27T06:41:24.679Z,18.11
2018-12-27T06:43:51.892Z,18.19
2018-12-27T06:46:19.050Z,18.17
2018-12-27T06:48:46.241Z,18.17
2018-12-27T06:51:13.439Z,18.20
2018-12-27T06:53:40.674Z,18.13
2018-12-27T06:56:07.850Z,18.12
2018-12-27T06:58:37.875Z,18.12
2018-12-27T07:01:04.123Z,18.19
2018-12-27T07:03:31.291Z,18.12
2018-12-27T07:05:58.506Z,18.10
2018-12-27T07:08:25.713Z,18.06
2018-12-27T07:10:52.899Z,18.11
2018-12-27T07:13:20.180Z,18.10
2018-12-27T07:15:47.351Z,18.10
2018-12-27T07:18:14.535Z,18.03
2018-12-27T07:20:41.683Z,18.09
2018-12-27T07:23:08.812Z,18.11
2018-12-27T07:25:35.984Z,18.09
2018-12-27T07:28:03.198Z,18.04
2018-12-27T07:30:30.415Z,18.00
2018-12-27T07:32:57.583Z,17.97
2018-12-27T07:35:24.857Z,18.09
2018-12-27T07:37:52.012Z,18.12
2018-12-27T07:40:19.235Z,18.10
2018-12-27T07:42:46.497Z,18.05
2018-12-27T07:45:13.668Z,18.06
2018-12-27T07:48:17.477Z,18.11
2018-12-27T07:50:44.687Z,18.12
2018-12-27T07:53:11.803Z,18.05
2018-12-27T07:55:39.213Z,18.18
2018-12-27T07:58:06.344Z,18.15
2018-12-27T08:00:33.565Z,18.10
2018-12-27T08:03:01.891Z,18.07
2018-12-27T08:05:29.043Z,18.10
2018-12-27T08:07:56.243Z,18.14
2018-12-27T08:10:23.468Z,18.19
2018-12-27T08:12:50.662Z,18.11
2018-12-27T08:15:17.984Z,18.10
2018-12-27T08:17:45.122Z,18.15
2018-12-27T08:20:12.292Z,18.19
2018-12-27T08:22:39.450Z,18.17
2018-12-27T08:25:06.649Z,18.19
2018-12-27T08:27:33.824Z,18.16
2018-12-27T08:30:01.024Z,18.26
2018-12-27T08:32:28.327Z,18.22
2018-12-27T08:34:55.522Z,18.21
2018-12-27T08:37:22.716Z,18.20
2018-12-27T08:39:49.892Z,18.15
2018-12-27T08:42:17.044Z,18.19
2018-12-27T08:44:44.365Z,18.18
2018-12-27T08:47:11.538Z,18.16
2018-12-27T08:49:38.705Z,18.12
2018-12-27T08:52:05.951Z,18.14
2018-12-27T08:54:33.102Z,18.02
2018-12-27T08:57:00.276Z,17.96
2018-12-27T08:59:27.435Z,17.92
2018-12-27T09:01:54.656Z,17.92
2018-12-27T09:04:21.883Z,17.89
2018-12-27T09:06:49.172Z,17.95
2018-12-27T09:09:16.400Z,17.98
2018-12-27T09:11:43.566Z,18.04
2018-12-27T09:14:10.798Z,18.08
2018-12-27T09:16:50.194Z,18.02
2018-12-27T09:19:17.380Z,17.97
2018-12-27T09:21:44.722Z,17.99
2018-12-27T09:24:12.046Z,17.97
2018-12-27T09:26:39.205Z,18.02
2018-12-27T09:29:06.480Z,18.08
2018-12-27T09:31:33.685Z,17.91
2018-12-27T09:34:00.840Z,17.54
2018-12-27T09:36:28.025Z,17.56
2018-12-27T09:38:55.250Z,17.58
2018-12-27T09:41:22.447Z,17.63
2018-12-27T09:43:49.647Z,17.68
2018-12-27T09:46:16.848Z,17.72
2018-12-27T09:48:44.061Z,17.77
2018-12-27T09:51:11.267Z,17.91
2018-12-27T09:53:38.431Z,17.89
2018-12-27T09:56:05.666Z,17.84
2018-12-27T09:58:32.805Z,17.78
2018-12-27T10:01:00.168Z,17.86
2018-12-27T10:03:27.370Z,17.86
2018-12-27T10:05:54.555Z,17.95
2018-12-27T10:08:22.837Z,17.94
2018-12-27T10:10:50.041Z,17.88
2018-12-27T10:13:17.161Z,17.85
2018-12-27T10:15:44.474Z,17.78
2018-12-27T10:18:11.623Z,17.80
2018-12-27T10:20:38.904Z,17.70
2018-12-27T10:23:06.073Z,17.67
2018-12-27T10:25:33.242Z,17.64
2018-12-27T10:28:00.420Z,17.65
2018-12-27T10:30:27.655Z,17.67
2018-12-27T10:32:54.848Z,17.64
2018-12-27T10:35:22.031Z,17.71
2018-12-27T10:37:49.195Z,17.78
2018-12-27T10:40:16.436Z,17.74
2018-12-27T10:42:43.637Z,17.86
2018-12-27T10:45:10.948Z,17.85
2018-12-27T10:47:38.129Z,17.83
2018-12-27T10:50:06.419Z,17.89
2018-12-27T10:52:33.603Z,17.82
2018-12-27T10:55:00.767Z,17.80
2018-12-27T10:57:27.971Z,17.82
2018-12-27T10:59:55.175Z,17.75
2018-12-27T11:02:22.387Z,17.70
2018-12-27T11:04:49.577Z,17.73
2018-12-27T11:07:16.831Z,17.68
2018-12-27T11:09:44.100Z,17.64
2018-12-27T11:12:11.414Z,17.58
2018-12-27T11:14:38.710Z,17.60
2018-12-27T11:17:05.901Z,17.57
2018-12-27T11:19:33.076Z,17.66
2018-12-27T11:22:00.222Z,17.61
2018-12-27T11:24:27.475Z,17.62
2018-12-27T11:26:54.790Z,17.60
2018-12-27T11:29:21.951Z,17.63
2018-12-27T11:31:49.149Z,17.62
2018-12-27T11:34:16.389Z,17.73
2018-12-27T11:36:43.600Z,17.77
2018-12-27T11:39:10.914Z,17.78
2018-12-27T11:41:38.092Z,17.76
2018-12-27T11:44:05.252Z,17.74
2018-12-27T11:46:32.426Z,17.72
2018-12-27T11:48:59.586Z,17.77
2018-12-27T11:51:26.804Z,17.75
2018-12-27T11:53:54.040Z,17.77
2018-12-27T11:56:21.243Z,17.77
2018-12-27T11:58:48.408Z,17.77
2018-12-27T12:01:15.629Z,17.75
2018-12-27T12:03:42.896Z,17.70
2018-12-27T12:06:10.058Z,17.73
2018-12-27T12:08:56.776Z,17.98
2018-12-27T12:11:27.043Z,17.77
2018-12-27T12:13:56.986Z,17.83
2018-12-27T12:16:33.461Z,17.93
2018-12-27T12:19:00.643Z,18.04
2018-12-27T12:21:27.835Z,18.16
2018-12-27T12:24:14.581Z,18.41
2018-12-27T12:26:41.798Z,18.62
2018-12-27T12:29:09.587Z,18.85
2018-12-27T12:31:56.347Z,19.00
2018-12-27T12:34:24.975Z,19.22
2018-12-27T12:36:52.939Z,19.38
2018-12-27T12:39:39.597Z,19.45
2018-12-27T12:42:07.970Z,19.57
2018-12-27T12:44:35.183Z,19.69
2018-12-27T12:47:11.442Z,19.74
2018-12-27T12:49:38.782Z,19.75
2018-12-27T12:52:06.078Z,19.77
2018-12-27T12:54:52.984Z,19.78
2018-12-27T12:57:20.245Z,19.80
2018-12-27T12:59:47.449Z,19.84
2018-12-27T13:02:14.767Z,19.93
2018-12-27T13:04:42.989Z,19.98
2018-12-27T13:07:29.475Z,20.07
2018-12-27T13:09:56.663Z,20.08
2018-12-27T13:12:23.875Z,20.11
2018-12-27T13:15:08.744Z,20.12
2018-12-27T13:17:35.984Z,20.16
2018-12-27T13:20:03.940Z,20.19
2018-12-27T13:22:46.897Z,20.21
2018-12-27T13:25:14.092Z,20.25
2018-12-27T13:27:41.327Z,20.28
2018-12-27T13:30:27.030Z,20.28
2018-12-27T13:32:55.295Z,20.30
2018-12-27T13:35:22.520Z,20.31
2018-12-27T13:38:14.218Z,20.41
2018-12-27T13:40:41.396Z,20.38
2018-12-27T13:43:08.552Z,20.38
2018-12-27T13:45:35.782Z,20.41
2018-12-27T13:48:03.092Z,20.40
2018-12-27T13:50:49.812Z,20.39
2018-12-27T13:53:18.568Z,20.43
2018-12-27T13:55:47.609Z,20.40
2018-12-27T13:58:37.357Z,20.42
2018-12-27T14:01:04.616Z,20.42
2018-12-27T14:03:31.882Z,20.41
2018-12-27T14:06:18.663Z,20.47
2018-12-27T14:08:45.910Z,20.50
2018-12-27T14:11:13.173Z,20.52
2018-12-27T14:28:39.876Z,20.12
2018-12-27T14:31:07.073Z,19.93
2018-12-27T14:33:52.731Z,19.95
2018-12-27T14:53:39.412Z,19.81
2018-12-27T14:56:06.686Z,19.78
2018-12-27T14:58:33.858Z,19.78
2018-12-27T15:01:01.069Z,19.77
2018-12-27T15:03:28.354Z,19.74
2018-12-27T15:05:55.590Z,19.73
2018-12-27T15:08:25.855Z,19.67
2018-12-27T15:11:09.626Z,19.64
2018-12-27T15:14:10.934Z,19.62
2018-12-27T15:17:53.023Z,19.64
2018-12-27T15:20:22.623Z,19.59
2018-12-27T15:22:50.961Z,19.56
2018-12-27T15:25:18.100Z,19.64
2018-12-27T15:27:45.413Z,19.61
2018-12-27T15:30:12.570Z,19.65
2018-12-27T15:32:44.913Z,19.52
2018-12-27T15:35:15.335Z,19.45
2018-12-27T15:37:42.538Z,19.55
2018-12-27T15:40:09.780Z,19.58
2018-12-27T15:42:37.128Z,19.57
2018-12-27T15:45:04.437Z,19.64
2018-12-27T15:47:31.664Z,19.68
2018-12-27T15:49:58.883Z,19.53
2018-12-27T15:52:26.092Z,19.45
2018-12-27T15:54:53.338Z,19.39
2018-12-27T15:57:20.711Z,19.29
2018-12-27T15:59:48.069Z,19.39
2018-12-27T16:02:15.238Z,19.33
2018-12-27T16:04:42.410Z,19.25
2018-12-27T16:07:09.612Z,19.20
2018-12-27T16:09:36.793Z,19.17
2018-12-27T16:12:03.959Z,19.16
2018-12-27T16:14:31.279Z,19.13
2018-12-27T16:16:58.547Z,19.26
2018-12-27T16:19:25.780Z,19.41
2018-12-27T16:21:52.986Z,19.48
2018-12-27T16:24:20.182Z,19.46
2018-12-27T16:26:47.380Z,19.42
2018-12-27T16:29:14.539Z,19.44
2018-12-27T16:31:41.700Z,19.44
2018-12-27T16:34:09.024Z,19.44
2018-12-27T16:36:36.226Z,19.45
2018-12-27T16:39:05.358Z,19.48
2018-12-27T16:41:32.532Z,19.49
2018-12-27T16:44:00.589Z,19.48
2018-12-27T16:46:27.786Z,19.52
2018-12-27T16:48:55.010Z,19.48
2018-12-27T16:51:22.208Z,19.48
2018-12-27T16:53:49.359Z,19.52
2018-12-27T16:56:16.553Z,19.49
2018-12-27T16:58:43.778Z,19.48
2018-12-27T17:01:10.958Z,19.50
2018-12-27T17:03:38.228Z,19.55
2018-12-27T17:06:05.535Z,19.63
2018-12-27T17:08:32.756Z,19.68
2018-12-27T17:10:59.958Z,19.63
2018-12-27T17:13:28.004Z,19.57
2018-12-27T17:15:55.378Z,19.54
2018-12-27T17:18:22.599Z,19.53
2018-12-27T17:20:49.825Z,19.55
2018-12-27T17:23:19.147Z,19.55
2018-12-27T17:25:46.370Z,19.53
2018-12-27T17:28:13.594Z,19.58
2018-12-27T17:30:40.755Z,19.55
2018-12-27T17:33:08.084Z,19.54
2018-12-27T17:35:35.276Z,19.53
2018-12-27T17:38:02.492Z,19.53
2018-12-27T17:40:29.712Z,19.55
2018-12-27T17:42:56.951Z,19.55
2018-12-27T17:45:24.179Z,19.50
2018-12-27T17:47:51.409Z,19.49
2018-12-27T17:50:18.597Z,19.49
2018-12-27T17:52:45.925Z,19.51
2018-12-27T17:55:13.187Z,19.48
2018-12-27T17:57:40.591Z,19.48
2018-12-27T18:00:08.119Z,19.45
2018-12-27T18:02:35.458Z,19.46
2018-12-27T18:05:03.025Z,19.46
2018-12-27T18:07:30.713Z,19.51
2018-12-27T18:09:58.516Z,19.51
2018-12-27T18:12:25.755Z,19.50
2018-12-27T18:14:59.554Z,19.49
2018-12-27T18:17:26.897Z,19.51
2018-12-27T18:19:54.121Z,19.51
2018-12-27T18:22:21.540Z,19.49
2018-12-27T18:24:48.829Z,19.50
2018-12-27T18:27:16.035Z,19.47
2018-12-27T18:29:43.210Z,19.45
2018-12-27T18:32:10.491Z,19.47
2018-12-27T18:34:37.706Z,19.49
2018-12-27T18:37:04.937Z,19.49
2018-12-27T18:39:32.165Z,19.53
2018-12-27T18:41:59.357Z,19.54
2018-12-27T18:44:26.580Z,19.55
2018-12-27T18:46:53.735Z,19.64
2018-12-27T18:49:21.172Z,19.62
2018-12-27T18:51:48.338Z,19.64
2018-12-27T18:54:15.535Z,19.63
2018-12-27T18:56:42.736Z,19.70
2018-12-27T18:59:09.999Z,19.66
2018-12-27T19:01:37.398Z,19.67
2018-12-27T19:04:04.649Z,19.68
2018-12-27T19:06:31.893Z,19.75
2018-12-27T19:08:59.062Z,19.73
2018-12-27T19:12:02.979Z,19.72
2018-12-27T19:14:30.147Z,19.68
2018-12-27T19:16:58.557Z,19.68
2018-12-27T19:19:25.826Z,19.68
2018-12-27T19:22:00.787Z,19.65
2018-12-27T19:24:28.125Z,19.64
2018-12-27T19:26:55.337Z,19.65
2018-12-27T19:29:22.610Z,19.67
2018-12-27T19:31:49.873Z,19.64
2018-12-27T19:34:17.220Z,19.61
2018-12-27T19:36:44.406Z,19.65
2018-12-27T19:39:11.635Z,19.64
2018-12-27T19:41:38.886Z,19.64
2018-12-27T19:44:06.092Z,19.66
2018-12-27T19:46:33.557Z,19.65
2018-12-27T19:49:01.918Z,19.64
2018-12-27T19:51:29.288Z,19.61
2018-12-27T19:53:56.482Z,19.57
2018-12-27T19:56:23.870Z,19.55
2018-12-27T19:58:51.122Z,19.54
2018-12-27T20:01:18.349Z,19.56
2018-12-27T20:03:45.714Z,19.55
2018-12-27T20:06:13.219Z,19.54
2018-12-27T20:08:40.482Z,19.53
2018-12-27T20:11:07.673Z,19.51
2018-12-27T20:13:34.866Z,19.52
2018-12-27T20:16:02.072Z,19.52
2018-12-27T20:18:29.445Z,19.52
2018-12-27T20:20:56.649Z,19.51
2018-12-27T20:23:23.910Z,19.51
2018-12-27T20:25:51.333Z,19.51
2018-12-27T20:28:18.650Z,19.51
2018-12-27T20:30:45.883Z,19.52
2018-12-27T20:33:13.228Z,19.50
2018-12-27T20:35:40.465Z,19.50
2018-12-27T20:38:07.698Z,19.50
2018-12-27T20:40:34.885Z,19.50
2018-12-27T20:43:02.178Z,19.49
2018-12-27T20:45:29.499Z,19.50
2018-12-27T20:47:56.736Z,19.51
2018-12-27T20:50:24.027Z,19.48
2018-12-27T20:52:53.075Z,19.43
2018-12-27T20:55:20.285Z,19.38
2018-12-27T20:57:47.490Z,19.34
2018-12-27T21:00:14.786Z,19.34
2018-12-27T21:02:42.880Z,19.32
2018-12-27T21:05:10.110Z,19.31
2018-12-27T21:07:37.310Z,19.29
2018-12-27T21:10:04.516Z,19.28
2018-12-27T21:12:31.754Z,19.29
2018-12-27T21:14:59.085Z,19.40
2018-12-27T21:17:26.355Z,19.41
2018-12-27T21:19:53.606Z,19.44
2018-12-27T21:22:21.032Z,19.46
2018-12-27T21:24:48.242Z,19.47
2018-12-27T21:27:15.477Z,19.48
2018-12-27T21:29:42.704Z,19.48
2018-12-27T21:32:09.952Z,19.45
2018-12-27T21:34:37.166Z,19.45
2018-12-27T21:37:04.383Z,19.45
2018-12-27T21:39:31.583Z,19.45
2018-12-27T21:41:58.995Z,19.45
2018-12-27T21:44:26.314Z,19.46
2018-12-27T21:46:53.663Z,19.48
2018-12-27T21:49:20.825Z,19.46
2018-12-27T21:51:48.125Z,19.49
2018-12-27T21:54:15.316Z,19.45
2018-12-27T21:56:42.539Z,19.43
2018-12-27T21:59:09.778Z,19.41
2018-12-27T22:01:37.039Z,19.42
2018-12-27T22:04:04.193Z,19.42
2018-12-27T22:06:31.553Z,19.44
2018-12-27T22:08:58.870Z,19.47
2018-12-27T22:11:26.170Z,19.50
2018-12-27T22:13:53.404Z,19.57
2018-12-27T22:16:20.647Z,19.57
2018-12-27T22:18:48.001Z,19.60
2018-12-27T22:21:15.221Z,19.61
2018-12-27T22:23:42.372Z,19.62
2018-12-27T22:26:09.642Z,19.64
2018-12-27T22:28:36.906Z,19.64
2018-12-27T22:31:04.287Z,19.60
2018-12-27T22:33:31.571Z,19.57
2018-12-27T22:35:58.907Z,19.55
2018-12-27T22:38:26.217Z,19.51
2018-12-27T22:40:53.412Z,19.48
2018-12-27T22:43:20.677Z,19.48
2018-12-27T22:45:47.935Z,19.48
2018-12-27T22:48:15.164Z,19.47
2018-12-27T22:50:42.398Z,19.47
2018-12-27T22:53:09.605Z,19.44
2018-12-27T22:55:36.962Z,19.45
2018-12-27T22:58:04.094Z,19.50
2018-12-27T23:00:39.531Z,19.52
2018-12-27T23:03:06.788Z,19.53
2018-12-27T23:05:34.028Z,19.56
2018-12-27T23:08:01.298Z,19.55
2018-12-27T23:10:28.581Z,19.56
2018-12-27T23:12:55.802Z,19.57
2018-12-27T23:15:23.067Z,19.56
2018-12-27T23:17:51.126Z,19.57
2018-12-27T23:20:18.324Z,19.55
2018-12-27T23:22:45.610Z,19.54
2018-12-27T23:25:12.854Z,19.53
2018-12-27T23:27:40.069Z,19.51
2018-12-27T23:30:07.688Z,19.49
2018-12-27T23:32:34.920Z,19.48
2018-12-27T23:35:02.281Z,19.46
2018-12-27T23:37:29.500Z,19.50
2018-12-27T23:39:56.711Z,19.47
2018-12-27T23:42:23.953Z,19.47
2018-12-27T23:44:51.166Z,19.47
2018-12-27T23:47:20.549Z,19.50
2018-12-27T23:49:47.777Z,19.52
2018-12-27T23:52:15.012Z,19.57
2018-12-27T23:54:42.281Z,19.55
2018-12-27T23:57:09.506Z,19.57
2018-12-27T23:59:36.657Z,19.62
